createdAt,value
2022-11-24T00:09:48.825Z,87.90
2022-11-24T00:19:55.987Z,88.07
2022-11-24T00:29:59.793Z,88.11
2022-11-24T00:40:05.287Z,88.14
2022-11-24T00:50:09.225Z,88.11
2022-11-24T01:00:14.797Z,88.10
2022-11-24T01:10:18.072Z,87.83
2022-11-24T01:20:22.899Z,87.76
2022-11-24T01:30:25.918Z,87.84
2022-11-24T01:40:30.583Z,87.46
2022-11-24T01:50:36.035Z,87.39
2022-11-24T02:00:44.232Z,87.48
2022-11-24T02:10:50.837Z,87.08
2022-11-24T02:20:56.371Z,86.88
2022-11-24T02:31:02.485Z,87.21
2022-11-24T02:41:10.339Z,87.22
2022-11-24T02:51:18.005Z,87.15
2022-11-24T03:01:21.083Z,87.32
2022-11-24T03:11:25.594Z,87.22
2022-11-24T03:21:28.721Z,87.36
2022-11-24T03:31:33.273Z,87.21
2022-11-24T03:41:36.530Z,87.10
2022-11-24T03:51:41.226Z,87.04
2022-11-24T04:01:44.351Z,87.08
2022-11-24T04:12:07.226Z,87.10
2022-11-24T04:22:10.156Z,87.08
2022-11-24T04:32:20.492Z,87.32
2022-11-24T04:42:26.622Z,87.33
2022-11-24T04:52:31.367Z,87.21
2022-11-24T05:02:34.286Z,87.12
2022-11-24T05:12:39.794Z,87.17
2022-11-24T05:22:45.821Z,87.38
2022-11-24T05:32:50.169Z,87.22
2022-11-24T05:42:53.182Z,87.26
2022-11-24T05:52:57.556Z,87.31
2022-11-24T06:03:01.559Z,87.28
2022-11-24T06:13:08.147Z,87.21
2022-11-24T06:23:11.287Z,87.06
2022-11-24T06:33:18.060Z,86.94
2022-11-24T06:43:46.845Z,86.99
2022-11-24T06:54:12.168Z,87.00
2022-11-24T07:04:20.718Z,86.91
2022-11-24T07:14:28.885Z,86.93
2022-11-24T07:24:35.315Z,86.47
2022-11-24T07:34:40.230Z,86.58
2022-11-24T07:44:45.786Z,86.54
2022-11-24T07:54:51.185Z,86.67
2022-11-24T08:04:55.035Z,86.76
2022-11-24T08:15:20.422Z,86.70
2022-11-24T08:25:31.854Z,86.73
2022-11-24T08:35:38.451Z,86.82
2022-11-24T08:45:43.950Z,86.27
2022-11-24T08:56:08.134Z,86.35
2022-11-24T09:06:11.425Z,86.09
2022-11-24T09:16:17.582Z,86.16
2022-11-24T09:26:22.192Z,86.11
2022-11-24T09:36:28.382Z,85.81
2022-11-24T09:46:41.238Z,85.64
2022-11-24T09:56:49.650Z,85.75
2022-11-24T10:07:08.407Z,84.94
2022-11-24T10:17:29.634Z,85.13
2022-11-24T10:27:44.917Z,85.17
2022-11-24T10:38:01.068Z,85.12
2022-11-24T10:48:06.404Z,85.13
2022-11-24T10:58:18.711Z,84.95
2022-11-24T11:08:29.175Z,85.10
2022-11-24T11:18:37.286Z,85.11
2022-11-24T11:40:44.429Z,85.34
2022-11-24T11:51:22.224Z,85.17
2022-11-24T12:01:58.544Z,85.41
2022-11-24T12:12:20.561Z,85.45
2022-11-24T12:22:51.968Z,85.18
2022-11-24T12:33:22.934Z,85.66
2022-11-24T12:43:34.019Z,85.88
2022-11-24T12:53:41.056Z,86.00
2022-11-24T13:04:00.750Z,85.78
2022-11-24T13:14:07.202Z,85.94
2022-11-24T13:24:23.668Z,85.79
2022-11-24T13:34:57.717Z,85.97
2022-11-24T13:45:30.031Z,85.93
2022-11-24T13:55:38.116Z,85.69
2022-11-24T14:05:49.260Z,85.65
2022-11-24T14:16:00.391Z,85.96
2022-11-24T14:26:11.288Z,85.75
2022-11-24T14:36:15.640Z,85.75
2022-11-24T14:46:22.817Z,85.82
2022-11-24T14:56:29.221Z,85.90
2022-11-24T15:06:36.771Z,85.52
2022-11-24T15:16:42.118Z,85.65
2022-11-24T15:27:11.076Z,85.64
2022-11-24T15:37:14.044Z,85.33
2022-11-24T15:47:18.585Z,85.74
2022-11-24T15:57:21.808Z,85.55
2022-11-24T16:07:27.664Z,85.28
2022-11-24T16:17:37.482Z,85.41
2022-11-24T16:27:42.487Z,85.63
2022-11-24T16:37:50.438Z,85.25
2022-11-24T16:47:57.822Z,85.30
2022-11-24T16:58:05.500Z,85.94
2022-11-24T17:08:10.045Z,85.89
2022-11-24T17:18:30.924Z,86.07
2022-11-24T17:28:35.726Z,86.01
2022-11-24T17:38:38.745Z,85.95
2022-11-24T17:48:48.170Z,86.11
2022-11-24T17:58:54.567Z,86.63
2022-11-24T18:09:04.107Z,86.83
2022-11-24T18:19:11.238Z,86.82
2022-11-24T18:29:18.605Z,86.92
2022-11-24T18:39:21.370Z,86.89
2022-11-24T18:49:25.656Z,87.18
2022-11-24T18:59:28.664Z,86.94
2022-11-24T19:09:32.966Z,87.34
2022-11-24T19:19:36.223Z,87.41
2022-11-24T19:29:43.187Z,87.45
2022-11-24T19:39:46.142Z,87.37
2022-11-24T19:49:51.312Z,87.48
2022-11-24T19:59:54.239Z,87.45
2022-11-24T20:10:00.788Z,87.52
2022-11-24T20:20:10.559Z,87.49
2022-11-24T20:30:14.877Z,87.32
2022-11-24T20:40:19.436Z,87.39
2022-11-24T20:50:24.202Z,87.66
2022-11-24T21:00:27.315Z,87.72
2022-11-24T21:10:31.777Z,87.81
2022-11-24T21:20:34.718Z,87.93
2022-11-24T21:30:41.400Z,88.06
2022-11-24T21:40:50.003Z,88.19
2022-11-24T21:50:54.565Z,88.29
2022-11-24T22:01:02.822Z,88.36
2022-11-24T22:11:11.459Z,88.44
2022-11-24T22:21:15.841Z,88.54
2022-11-24T22:31:23.776Z,88.70
2022-11-24T22:41:26.791Z,88.69
2022-11-24T22:51:34.823Z,88.66
2022-11-24T23:01:37.710Z,88.66
2022-11-24T23:11:42.231Z,88.48
2022-11-24T23:21:45.213Z,88.69
2022-11-24T23:31:49.920Z,88.57
2022-11-24T23:41:52.965Z,88.59
2022-11-24T23:51:57.511Z,88.90
